createdAt,value
2018-03-20T00:02:09.075Z,-5.30
2018-03-20T00:04:37.078Z,-5.30
2018-03-20T00:07:04.761Z,-5.40
2018-03-20T00:09:32.416Z,-5.40
2018-03-20T00:12:00.263Z,-5.40
2018-03-20T00:14:27.896Z,-5.30
2018-03-20T00:16:57.604Z,-5.20
2018-03-20T00:19:25.260Z,-5.20
2018-03-20T00:21:53.714Z,-5.30
2018-03-20T00:24:21.435Z,-5.30
2018-03-20T00:26:49.966Z,-5.10
2018-03-20T00:29:17.604Z,-5.20
2018-03-20T00:31:45.245Z,-5.30
2018-03-20T00:34:13.661Z,-5.50
2018-03-20T00:36:41.483Z,-5.60
2018-03-20T00:39:09.154Z,-5.60
2018-03-20T00:41:36.915Z,-5.60
2018-03-20T00:44:04.582Z,-5.70
2018-03-20T00:46:32.774Z,-5.80
2018-03-20T00:49:01.168Z,-6.00
2018-03-20T00:51:29.566Z,-6.00
2018-03-20T00:53:58.089Z,-6.10
2018-03-20T00:56:25.770Z,-6.10
2018-03-20T00:58:53.420Z,-6.10
2018-03-20T01:01:21.057Z,-6.10
2018-03-20T01:03:48.718Z,-6.10
2018-03-20T01:06:17.128Z,-6.30
2018-03-20T01:08:44.815Z,-6.40
2018-03-20T01:11:12.451Z,-6.40
2018-03-20T01:13:40.104Z,-6.50
2018-03-20T01:16:07.731Z,-6.50
2018-03-20T01:18:36.660Z,-6.50
2018-03-20T01:21:05.051Z,-6.50
2018-03-20T01:23:33.429Z,-6.50
2018-03-20T01:26:01.849Z,-6.50
2018-03-20T01:28:29.491Z,-6.50
2018-03-20T01:30:57.131Z,-6.50
2018-03-20T01:33:24.788Z,-6.60
2018-03-20T01:35:52.424Z,-6.60
2018-03-20T01:38:20.098Z,-6.50
2018-03-20T01:40:47.748Z,-6.60
2018-03-20T01:43:15.412Z,-6.60
2018-03-20T01:45:43.040Z,-6.60
2018-03-20T01:48:11.474Z,-6.60
2018-03-20T01:50:39.138Z,-6.60
2018-03-20T01:53:18.904Z,-6.50
2018-03-20T01:55:46.563Z,-6.60
2018-03-20T01:58:14.532Z,-6.60
2018-03-20T02:00:42.151Z,-6.50
2018-03-20T02:03:09.830Z,-6.60
2018-03-20T02:05:37.464Z,-6.60
2018-03-20T02:08:05.204Z,-6.60
2018-03-20T02:10:32.890Z,-6.80
2018-03-20T02:13:00.528Z,-6.80
2018-03-20T02:15:28.190Z,-6.80
2018-03-20T02:17:56.462Z,-6.70
2018-03-20T02:20:24.301Z,-6.60
2018-03-20T02:22:52.733Z,-6.50
2018-03-20T02:25:20.507Z,-6.60
2018-03-20T02:27:48.215Z,-6.60
2018-03-20T02:30:16.246Z,-6.50
2018-03-20T02:32:43.874Z,-6.50
2018-03-20T02:35:12.315Z,-6.60
2018-03-20T02:37:39.943Z,-6.60
2018-03-20T02:40:07.598Z,-6.50
2018-03-20T02:42:35.271Z,-6.60
2018-03-20T02:45:02.936Z,-6.50
2018-03-20T02:47:30.602Z,-6.50
2018-03-20T02:49:58.294Z,-6.40
2018-03-20T02:52:26.308Z,-6.40
2018-03-20T02:54:53.950Z,-6.30
2018-03-20T02:57:21.591Z,-5.90
2018-03-20T02:59:49.387Z,-6.00
2018-03-20T03:02:17.075Z,-6.00
2018-03-20T03:04:44.848Z,-5.90
2018-03-20T03:07:12.497Z,-5.90
2018-03-20T03:09:40.126Z,-6.00
2018-03-20T03:12:07.786Z,-5.90
2018-03-20T03:14:35.465Z,-5.90
2018-03-20T03:17:03.100Z,-6.00
2018-03-20T03:19:31.551Z,-5.90
2018-03-20T03:22:00.185Z,-5.90
2018-03-20T03:24:28.603Z,-6.00
2018-03-20T03:26:57.277Z,-6.00
2018-03-20T03:29:24.920Z,-6.00
2018-03-20T03:31:54.400Z,-5.90
2018-03-20T03:34:24.538Z,-6.00
2018-03-20T03:36:52.194Z,-6.00
2018-03-20T03:39:20.646Z,-5.90
2018-03-20T03:41:48.342Z,-5.90
2018-03-20T03:44:16.014Z,-6.00
2018-03-20T03:46:44.450Z,-6.00
2018-03-20T03:49:12.970Z,-6.00
2018-03-20T03:51:40.819Z,-5.90
2018-03-20T03:54:09.612Z,-5.70
2018-03-20T03:56:37.953Z,-5.80
2018-03-20T03:59:06.378Z,-6.10
2018-03-20T04:01:34.001Z,-6.10
2018-03-20T04:04:03.300Z,-6.60
2018-03-20T04:06:30.958Z,-6.60
2018-03-20T04:08:58.590Z,-6.60
2018-03-20T04:11:26.363Z,-6.70
2018-03-20T04:13:54.171Z,-6.70
2018-03-20T04:16:21.785Z,-6.80
2018-03-20T04:18:49.415Z,-6.80
2018-03-20T04:21:18.026Z,-6.90
2018-03-20T04:23:45.654Z,-6.90
2018-03-20T04:26:14.063Z,-7.00
2018-03-20T04:28:43.175Z,-7.10
2018-03-20T04:31:10.882Z,-7.10
2018-03-20T04:33:39.324Z,-7.00
2018-03-20T04:36:06.987Z,-7.00
2018-03-20T04:38:34.704Z,-7.10
2018-03-20T04:41:03.175Z,-6.90
2018-03-20T04:43:31.601Z,-7.00
2018-03-20T04:46:00.605Z,-6.90
2018-03-20T04:48:29.009Z,-7.00
2018-03-20T04:50:57.628Z,-7.00
2018-03-20T04:53:25.298Z,-7.10
2018-03-20T04:55:53.732Z,-7.00
2018-03-20T04:58:23.139Z,-7.00
2018-03-20T05:00:51.016Z,-7.00
2018-03-20T05:03:18.641Z,-7.00
2018-03-20T05:05:46.299Z,-6.90
2018-03-20T05:08:13.969Z,-6.80
2018-03-20T05:10:41.658Z,-6.80
2018-03-20T05:13:09.292Z,-6.80
2018-03-20T05:15:36.975Z,-6.50
2018-03-20T05:18:04.636Z,-6.60
2018-03-20T05:23:34.240Z,-6.40
2018-03-20T05:26:01.908Z,-6.40
2018-03-20T05:28:29.548Z,-6.30
2018-03-20T05:30:57.227Z,-6.00
2018-03-20T05:33:24.882Z,-5.70
2018-03-20T05:35:52.496Z,-5.60
2018-03-20T05:38:20.186Z,-5.40
2018-03-20T05:40:48.573Z,-5.10
2018-03-20T05:43:16.220Z,-5.10
2018-03-20T05:45:44.732Z,-4.90
2018-03-20T05:51:18.647Z,-4.80
2018-03-20T05:53:47.084Z,-4.70
2018-03-20T05:56:14.757Z,-4.70
2018-03-20T05:58:42.409Z,-4.60
2018-03-20T06:01:10.096Z,-4.60
2018-03-20T06:03:37.785Z,-4.60
2018-03-20T06:06:05.406Z,-4.60
2018-03-20T06:08:33.096Z,-4.50
2018-03-20T06:11:00.761Z,-4.40
2018-03-20T06:13:28.426Z,-4.30
2018-03-20T06:15:56.114Z,-4.20
2018-03-20T06:18:23.772Z,-4.00
2018-03-20T06:20:51.459Z,-3.90
2018-03-20T06:23:19.067Z,-3.80
2018-03-20T06:25:46.695Z,-3.70
2018-03-20T06:28:15.160Z,-3.50
2018-03-20T06:30:42.809Z,-3.60
2018-03-20T06:33:10.564Z,-3.50
2018-03-20T06:35:38.183Z,-3.30
2018-03-20T06:38:06.568Z,-3.00
2018-03-20T06:40:35.004Z,-3.00
2018-03-20T06:43:02.658Z,-3.00
2018-03-20T06:45:30.346Z,-2.90
2018-03-20T06:47:58.029Z,-2.80
2018-03-20T06:50:26.505Z,-2.60
2018-03-20T06:52:54.150Z,-2.60
2018-03-20T06:55:21.836Z,-2.50
2018-03-20T06:57:49.512Z,-2.40
2018-03-20T07:00:17.158Z,-2.40
2018-03-20T07:02:44.762Z,-2.40
2018-03-20T07:05:13.279Z,-2.30
2018-03-20T07:07:40.931Z,-2.30
2018-03-20T07:10:09.359Z,-2.20
2018-03-20T07:12:36.996Z,-2.30
2018-03-20T07:15:05.364Z,-2.00
2018-03-20T07:17:33.038Z,-2.10
2018-03-20T07:20:01.437Z,-2.00
2018-03-20T07:22:29.100Z,-2.00
2018-03-20T07:24:56.723Z,-1.90
2018-03-20T07:27:24.372Z,-1.90
2018-03-20T07:29:52.097Z,-1.80
2018-03-20T07:32:19.743Z,-1.80
2018-03-20T07:34:48.169Z,-1.60
2018-03-20T07:37:16.020Z,-1.70
2018-03-20T07:39:43.768Z,-1.50
2018-03-20T07:42:11.408Z,-1.40
2018-03-20T07:44:39.078Z,-1.40
2018-03-20T07:47:06.692Z,-1.30
2018-03-20T07:49:34.355Z,-1.30
2018-03-20T07:52:02.028Z,-1.20
2018-03-20T07:54:29.651Z,-1.20
2018-03-20T07:56:57.309Z,-1.10
2018-03-20T07:59:25.478Z,-1.00
2018-03-20T08:01:53.143Z,-0.90
2018-03-20T08:04:20.822Z,-0.90
2018-03-20T08:06:48.445Z,-0.80
2018-03-20T08:09:16.106Z,-0.80
2018-03-20T08:11:43.740Z,-0.80
2018-03-20T08:14:11.452Z,-0.70
2018-03-20T08:16:39.158Z,-0.70
2018-03-20T08:19:06.828Z,-0.80
2018-03-20T08:21:34.504Z,-0.80
2018-03-20T08:24:02.205Z,-0.70
2018-03-20T08:26:29.857Z,-0.90
2018-03-20T08:28:58.259Z,-0.70
2018-03-20T08:31:25.909Z,-0.80
2018-03-20T08:33:54.339Z,-0.80
2018-03-20T08:36:21.986Z,-0.80
2018-03-20T08:38:49.617Z,-1.00
2018-03-20T08:41:17.259Z,-1.00
2018-03-20T08:43:44.955Z,-0.90
2018-03-20T08:46:13.598Z,-0.70
2018-03-20T08:48:41.268Z,-0.70
2018-03-20T08:51:08.912Z,-0.40
2018-03-20T08:53:36.604Z,-0.40
2018-03-20T08:56:04.267Z,-0.10
2018-03-20T08:58:31.876Z,-0.10
2018-03-20T09:01:00.300Z,-0.50
2018-03-20T09:03:28.584Z,-0.50
2018-03-20T09:05:56.271Z,-0.50
2018-03-20T09:08:23.932Z,-0.40
2018-03-20T09:10:51.631Z,-0.50
2018-03-20T09:13:19.266Z,-0.40
2018-03-20T09:15:46.913Z,-0.30
2018-03-20T09:18:14.572Z,-0.10
2018-03-20T09:20:42.227Z,-0.20
2018-03-20T09:23:10.612Z,-0.30
2018-03-20T09:25:38.261Z,-0.30
2018-03-20T09:28:05.903Z,-0.10
2018-03-20T09:30:33.532Z,0.00
2018-03-20T09:33:01.189Z,0.20
2018-03-20T09:35:28.909Z,0.20
2018-03-20T09:37:56.547Z,0.30
2018-03-20T09:40:24.347Z,0.30
2018-03-20T09:42:51.967Z,0.20
2018-03-20T09:45:19.626Z,0.20
2018-03-20T09:47:47.264Z,0.20
2018-03-20T09:50:15.645Z,0.50
2018-03-20T09:52:44.061Z,0.40
2018-03-20T09:55:11.711Z,0.40
2018-03-20T09:57:40.119Z,0.50
2018-03-20T10:00:07.781Z,0.40
2018-03-20T10:02:35.406Z,0.60
2018-03-20T10:05:03.147Z,0.70
2018-03-20T10:07:30.809Z,0.60
2018-03-20T10:09:58.406Z,0.60
2018-03-20T10:12:26.272Z,0.60
2018-03-20T10:14:53.905Z,0.50
2018-03-20T10:17:21.566Z,0.70
2018-03-20T10:19:49.223Z,0.80
2018-03-20T10:22:16.860Z,0.60
2018-03-20T10:24:44.552Z,0.40
2018-03-20T10:27:12.218Z,0.50
2018-03-20T10:29:39.898Z,0.60
2018-03-20T10:32:07.614Z,0.60
2018-03-20T10:34:35.275Z,0.60
2018-03-20T10:37:02.915Z,0.80
2018-03-20T10:39:30.652Z,0.80
2018-03-20T10:41:58.425Z,0.90
2018-03-20T10:44:27.582Z,1.00
2018-03-20T10:46:55.248Z,0.90
2018-03-20T10:49:22.908Z,0.70
2018-03-20T10:51:50.594Z,0.60
2018-03-20T10:54:18.253Z,0.70
2018-03-20T10:56:45.919Z,0.60
2018-03-20T10:59:13.583Z,0.50
2018-03-20T11:01:46.133Z,0.60
2018-03-20T11:04:13.828Z,0.70
2018-03-20T11:06:42.216Z,0.70
2018-03-20T11:09:09.874Z,0.70
2018-03-20T11:11:38.147Z,0.70
2018-03-20T11:14:05.801Z,0.50
2018-03-20T11:16:33.506Z,0.60
2018-03-20T11:19:01.940Z,0.60
2018-03-20T11:21:29.624Z,0.60
2018-03-20T11:23:57.317Z,0.50
2018-03-20T11:26:25.034Z,0.60
2018-03-20T11:28:52.794Z,0.70
2018-03-20T11:31:20.451Z,0.70
2018-03-20T11:33:48.830Z,0.60
2018-03-20T11:36:17.353Z,0.60
2018-03-20T11:38:45.077Z,0.60
2018-03-20T11:41:13.685Z,0.70
2018-03-20T11:43:42.265Z,0.70
2018-03-20T11:46:10.030Z,0.60
2018-03-20T11:48:38.506Z,0.60
2018-03-20T11:51:06.891Z,0.40
2018-03-20T11:53:35.357Z,0.60
2018-03-20T11:56:02.977Z,0.50
2018-03-20T11:58:30.615Z,0.60
2018-03-20T12:00:59.048Z,0.80
2018-03-20T12:03:27.495Z,0.80
2018-03-20T12:05:55.913Z,1.00
2018-03-20T12:08:35.453Z,1.00
2018-03-20T12:11:03.123Z,1.00
2018-03-20T12:13:31.217Z,1.10
2018-03-20T12:15:58.868Z,0.90
2018-03-20T12:18:26.500Z,1.10
2018-03-20T12:20:54.139Z,1.40
2018-03-20T12:23:22.568Z,1.50
2018-03-20T12:25:50.196Z,1.50
2018-03-20T12:28:18.740Z,1.50
2018-03-20T12:30:46.473Z,1.50
2018-03-20T12:33:14.893Z,1.90
2018-03-20T12:35:42.616Z,1.80
2018-03-20T12:38:10.253Z,1.90
2018-03-20T12:40:37.949Z,2.00
2018-03-20T12:43:05.604Z,2.00
2018-03-20T12:45:34.754Z,2.40
2018-03-20T12:48:03.094Z,2.40
2018-03-20T12:50:30.796Z,2.40
2018-03-20T12:52:58.503Z,2.30
2018-03-20T12:55:26.166Z,2.50
2018-03-20T12:57:54.602Z,2.50
2018-03-20T13:00:22.309Z,2.50
2018-03-20T13:02:49.944Z,2.30
2018-03-20T13:05:17.608Z,2.40
2018-03-20T13:07:45.248Z,2.50
2018-03-20T13:10:13.673Z,2.40
2018-03-20T13:12:41.317Z,2.40
2018-03-20T13:15:09.220Z,2.50
2018-03-20T13:17:36.919Z,2.50
2018-03-20T13:20:05.263Z,2.60
2018-03-20T13:22:32.890Z,2.40
2018-03-20T13:25:01.314Z,2.40
2018-03-20T13:27:30.151Z,2.30
2018-03-20T13:29:57.813Z,2.20
2018-03-20T13:32:25.694Z,2.30
2018-03-20T13:34:53.353Z,2.30
2018-03-20T13:37:20.965Z,2.20
2018-03-20T13:39:48.646Z,2.30
2018-03-20T13:42:16.261Z,2.10
2018-03-20T13:44:43.924Z,2.10
2018-03-20T13:47:12.353Z,2.20
2018-03-20T13:49:40.665Z,2.20
2018-03-20T13:52:08.292Z,2.30
2018-03-20T13:54:35.965Z,2.20
2018-03-20T13:57:03.656Z,2.30
2018-03-20T13:59:32.118Z,2.20
2018-03-20T14:01:59.774Z,2.20
2018-03-20T14:04:27.437Z,2.20
2018-03-20T14:06:55.101Z,2.30
2018-03-20T14:09:22.717Z,2.40
2018-03-20T14:11:50.415Z,2.50
2018-03-20T14:14:18.866Z,2.30
2018-03-20T14:16:46.478Z,2.30
2018-03-20T14:19:14.919Z,2.20
2018-03-20T14:21:42.530Z,2.20
2018-03-20T14:24:10.969Z,2.10
2018-03-20T14:26:38.791Z,2.20
2018-03-20T14:29:07.199Z,2.30
2018-03-20T14:31:34.914Z,2.30
2018-03-20T14:34:02.590Z,2.30
2018-03-20T14:36:30.278Z,2.40
2018-03-20T14:38:58.658Z,2.50
2018-03-20T14:41:27.184Z,2.50
2018-03-20T14:43:54.844Z,2.50
2018-03-20T14:46:22.768Z,2.50
2018-03-20T14:48:50.429Z,2.60
2018-03-20T14:51:18.076Z,2.70
2018-03-20T14:53:46.470Z,2.60
2018-03-20T14:56:15.002Z,2.70
2018-03-20T14:58:42.641Z,2.60
2018-03-20T15:01:10.297Z,2.60
2018-03-20T15:03:37.962Z,2.70
2018-03-20T15:06:06.364Z,2.70
2018-03-20T15:08:34.002Z,2.70
2018-03-20T15:11:02.406Z,2.60
2018-03-20T15:13:30.164Z,2.60
2018-03-20T15:15:57.810Z,2.60
2018-03-20T15:18:25.480Z,2.60
2018-03-20T15:20:53.167Z,2.60
2018-03-20T15:23:21.626Z,2.50
2018-03-20T15:25:49.307Z,2.50
2018-03-20T15:28:17.761Z,2.40
2018-03-20T15:30:45.411Z,2.40
2018-03-20T15:34:04.082Z,2.40
2018-03-20T15:36:32.500Z,2.40
2018-03-20T15:39:00.163Z,2.40
2018-03-20T15:41:27.829Z,2.40
2018-03-20T15:43:55.897Z,2.40
2018-03-20T15:46:24.277Z,2.30
2018-03-20T15:48:52.670Z,2.30
2018-03-20T15:51:20.370Z,2.30
2018-03-20T15:53:48.027Z,2.20
2018-03-20T15:56:15.630Z,2.20
2018-03-20T15:58:43.269Z,2.30
2018-03-20T16:01:11.193Z,2.10
2018-03-20T16:03:39.645Z,2.10
2018-03-20T16:06:07.275Z,2.10
2018-03-20T16:08:34.915Z,2.10
2018-03-20T16:11:03.303Z,1.90
2018-03-20T16:13:31.013Z,2.00
2018-03-20T16:15:58.729Z,1.90
2018-03-20T16:18:26.407Z,1.70
2018-03-20T16:20:54.063Z,1.60
2018-03-20T16:23:22.525Z,1.50
2018-03-20T16:25:50.927Z,1.40
2018-03-20T16:28:19.496Z,1.40
2018-03-20T16:30:47.161Z,1.40
2018-03-20T16:33:14.822Z,1.30
2018-03-20T16:35:42.655Z,1.40
2018-03-20T16:38:10.256Z,1.30
2018-03-20T16:40:38.725Z,1.20
2018-03-20T16:43:06.730Z,1.20
2018-03-20T16:45:34.362Z,1.20
2018-03-20T16:48:02.048Z,1.10
2018-03-20T16:50:29.671Z,1.00
2018-03-20T16:52:58.405Z,0.90
2018-03-20T16:55:26.098Z,0.90
2018-03-20T16:57:53.702Z,0.90
2018-03-20T17:00:21.362Z,0.80
2018-03-20T17:02:49.061Z,0.80
2018-03-20T17:05:16.726Z,0.70
2018-03-20T17:07:44.413Z,0.60
2018-03-20T17:10:12.377Z,0.60
2018-03-20T17:12:40.058Z,0.60
2018-03-20T17:15:07.676Z,0.60
2018-03-20T17:17:35.307Z,0.40
2018-03-20T17:20:03.779Z,0.20
2018-03-20T17:22:31.451Z,0.20
2018-03-20T17:24:59.110Z,0.20
2018-03-20T17:27:26.854Z,0.30
2018-03-20T17:29:54.801Z,0.20
2018-03-20T17:32:22.526Z,0.10
2018-03-20T17:34:50.940Z,0.10
2018-03-20T17:37:19.350Z,0.00
2018-03-20T17:39:47.003Z,0.00
2018-03-20T17:42:14.706Z,0.00
2018-03-20T17:44:42.345Z,-0.10
2018-03-20T17:47:10.008Z,-0.10
2018-03-20T17:49:37.843Z,-0.10
2018-03-20T17:52:06.234Z,0.00
2018-03-20T17:54:33.898Z,0.00
2018-03-20T17:57:01.585Z,0.00
2018-03-20T17:59:30.040Z,-0.20
2018-03-20T18:01:58.442Z,-0.20
2018-03-20T18:04:26.844Z,-0.30
2018-03-20T18:06:55.283Z,-0.30
2018-03-20T18:09:22.951Z,-0.40
2018-03-20T18:11:50.626Z,-0.50
2018-03-20T18:14:18.339Z,-0.40
2018-03-20T18:16:45.961Z,-0.50
2018-03-20T18:19:13.594Z,-0.40
2018-03-20T18:21:41.222Z,-0.50
2018-03-20T18:24:09.616Z,-0.60
2018-03-20T18:26:37.228Z,-0.60
2018-03-20T18:29:06.276Z,-0.50
2018-03-20T18:31:33.933Z,-0.50
2018-03-20T18:34:02.460Z,-0.70
2018-03-20T18:36:30.126Z,-0.70
2018-03-20T18:38:57.751Z,-0.70
2018-03-20T18:41:25.422Z,-0.70
2018-03-20T18:43:53.846Z,-0.70
2018-03-20T18:46:21.463Z,-0.80
2018-03-20T18:48:49.896Z,-0.80
2018-03-20T18:51:17.540Z,-0.90
2018-03-20T18:53:45.179Z,-0.80
2018-03-20T18:56:12.797Z,-0.90
2018-03-20T18:58:40.449Z,-0.90
2018-03-20T19:01:08.081Z,-0.90
2018-03-20T19:03:35.785Z,-1.00
2018-03-20T19:06:03.425Z,-1.00
2018-03-20T19:08:31.816Z,-1.10
2018-03-20T19:11:00.387Z,-1.00
2018-03-20T19:13:28.081Z,-1.00
2018-03-20T19:15:56.539Z,-1.00
2018-03-20T19:18:25.034Z,-1.10
2018-03-20T19:20:53.593Z,-1.10
2018-03-20T19:23:21.533Z,-1.10
2018-03-20T19:25:49.922Z,-1.10
2018-03-20T19:28:17.537Z,-1.10
2018-03-20T19:30:45.954Z,-1.20
2018-03-20T19:33:13.618Z,-1.20
2018-03-20T19:35:41.486Z,-1.30
2018-03-20T19:38:09.132Z,-1.20
2018-03-20T19:40:37.754Z,-1.10
2018-03-20T19:43:05.424Z,-1.20
2018-03-20T19:45:33.030Z,-1.20
2018-03-20T19:48:00.673Z,-1.20
2018-03-20T19:50:28.366Z,-1.30
2018-03-20T19:52:56.122Z,-1.30
2018-03-20T19:55:23.747Z,-1.30
2018-03-20T19:57:51.355Z,-1.40
2018-03-20T20:00:19.001Z,-1.40
2018-03-20T20:02:47.357Z,-1.40
2018-03-20T20:05:15.314Z,-1.40
2018-03-20T20:07:42.982Z,-1.50
2018-03-20T20:10:10.681Z,-1.50
2018-03-20T20:12:39.217Z,-1.40
2018-03-20T20:15:06.895Z,-1.50
2018-03-20T20:17:34.647Z,-1.60
2018-03-20T20:20:02.338Z,-1.60
2018-03-20T20:22:30.371Z,-1.60
2018-03-20T20:24:58.027Z,-1.70
2018-03-20T20:27:25.723Z,-1.70
2018-03-20T20:29:53.414Z,-1.80
2018-03-20T20:32:21.095Z,-1.70
2018-03-20T20:34:49.506Z,-1.90
2018-03-20T20:37:17.134Z,-1.90
2018-03-20T20:39:44.806Z,-1.90
2018-03-20T20:42:13.201Z,-1.90
2018-03-20T20:44:40.857Z,-1.90
2018-03-20T20:47:09.275Z,-2.00
2018-03-20T20:49:36.978Z,-2.00
2018-03-20T20:52:04.723Z,-2.10
2018-03-20T20:54:33.887Z,-2.10
2018-03-20T20:57:02.498Z,-2.10
2018-03-20T20:59:30.956Z,-2.00
2018-03-20T21:01:59.367Z,-2.00
2018-03-20T21:04:27.797Z,-2.00
2018-03-20T21:06:55.478Z,-2.00
2018-03-20T21:09:23.174Z,-2.00
2018-03-20T21:11:51.593Z,-2.20
2018-03-20T21:14:19.990Z,-2.20
2018-03-20T21:16:47.663Z,-2.20
2018-03-20T21:19:15.382Z,-2.10
2018-03-20T21:21:43.876Z,-2.10
2018-03-20T21:24:12.285Z,-2.10
2018-03-20T21:26:39.970Z,-2.10
2018-03-20T21:29:07.635Z,-2.10
2018-03-20T21:31:35.300Z,-2.20
2018-03-20T21:34:02.932Z,-2.20
2018-03-20T21:36:30.571Z,-2.20
2018-03-20T21:38:59.026Z,-2.10
2018-03-20T21:41:26.680Z,-2.10
2018-03-20T21:43:54.358Z,-2.20
2018-03-20T21:46:22.220Z,-2.30
2018-03-20T21:48:49.841Z,-2.30
2018-03-20T21:51:18.584Z,-2.30
2018-03-20T21:53:46.205Z,-2.30
2018-03-20T21:56:13.826Z,-2.40
2018-03-20T21:58:41.483Z,-2.50
2018-03-20T22:01:09.150Z,-2.50
2018-03-20T22:03:36.805Z,-2.40
2018-03-20T22:06:04.726Z,-2.50
2018-03-20T22:08:33.484Z,-2.40
2018-03-20T22:11:01.142Z,-2.40
2018-03-20T22:13:28.771Z,-2.40
2018-03-20T22:15:57.038Z,-2.50
2018-03-20T22:18:25.449Z,-2.40
2018-03-20T22:20:53.078Z,-2.40
2018-03-20T22:23:21.538Z,-2.50
2018-03-20T22:25:49.154Z,-2.50
2018-03-20T22:28:16.878Z,-2.50
2018-03-20T22:30:44.466Z,-2.50
2018-03-20T22:33:12.948Z,-2.60
2018-03-20T22:35:40.609Z,-2.70
2018-03-20T22:38:08.266Z,-2.70
2018-03-20T22:40:35.938Z,-2.80
2018-03-20T22:43:03.595Z,-2.70
2018-03-20T22:45:31.312Z,-2.80
2018-03-20T22:47:58.950Z,-2.70
2018-03-20T22:50:28.114Z,-2.80
2018-03-20T22:52:55.776Z,-2.80
2018-03-20T22:55:23.438Z,-2.90
2018-03-20T22:57:51.110Z,-2.90
2018-03-20T23:00:28.784Z,-2.90
2018-03-20T23:02:56.465Z,-2.90
2018-03-20T23:05:24.103Z,-3.00
2018-03-20T23:07:52.608Z,-3.20
2018-03-20T23:10:20.270Z,-3.20
2018-03-20T23:12:47.939Z,-3.20
2018-03-20T23:15:15.583Z,-3.20
2018-03-20T23:17:44.041Z,-3.20
2018-03-20T23:20:11.685Z,-3.20
2018-03-20T23:22:39.376Z,-3.30
2018-03-20T23:25:07.060Z,-3.30
2018-03-20T23:27:34.767Z,-3.40
2018-03-20T23:30:02.401Z,-3.40
2018-03-20T23:32:31.448Z,-3.40
2018-03-20T23:34:59.144Z,-3.40
2018-03-20T23:37:27.567Z,-3.40
2018-03-20T23:39:56.002Z,-3.40
2018-03-20T23:42:23.683Z,-3.40
2018-03-20T23:44:51.321Z,-3.30
2018-03-20T23:47:18.981Z,-3.30
2018-03-20T23:49:46.656Z,-3.40
2018-03-20T23:52:14.333Z,-3.50
2018-03-20T23:54:41.991Z,-3.50
2018-03-20T23:57:09.680Z,-3.50
2018-03-20T23:59:37.396Z,-3.50
